sensor_id;sensor_type;location;lat;lon;timestamp;pressure;altitude;pressure_sealevel;temperature;humidity
62617;BME280;62539;51.190;6.808;2023-02-19T00:01:15;101514.13;;;20.61;54.88
62617;BME280;62539;51.190;6.808;2023-02-19T00:03:47;101512.47;;;20.56;54.76
62617;BME280;62539;51.190;6.808;2023-02-19T00:06:17;101508.19;;;20.54;54.85
62617;BME280;62539;51.190;6.808;2023-02-19T00:08:44;101504.72;;;20.52;54.92
62617;BME280;62539;51.190;6.808;2023-02-19T00:11:12;101510.94;;;20.49;55.15
62617;BME280;62539;51.190;6.808;2023-02-19T00:13:42;101504.88;;;20.47;54.92
62617;BME280;62539;51.190;6.808;2023-02-19T00:16:18;101507.59;;;20.44;54.96
62617;BME280;62539;51.190;6.808;2023-02-19T00:18:46;101504.16;;;20.42;55.17
62617;BME280;62539;51.190;6.808;2023-02-19T00:21:12;101501.59;;;20.39;55.24
62617;BME280;62539;51.190;6.808;2023-02-19T00:23:39;101496.41;;;20.37;55.22
62617;BME280;62539;51.190;6.808;2023-02-19T00:26:07;101501.69;;;20.36;55.33
62617;BME280;62539;51.190;6.808;2023-02-19T00:28:34;101503.50;;;20.34;55.11
62617;BME280;62539;51.190;6.808;2023-02-19T00:31:07;101493.06;;;20.31;55.37
62617;BME280;62539;51.190;6.808;2023-02-19T00:33:39;101483.50;;;20.28;55.16
62617;BME280;62539;51.190;6.808;2023-02-19T00:36:04;101488.81;;;20.26;55.24
62617;BME280;62539;51.190;6.808;2023-02-19T00:38:31;101487.16;;;20.22;55.17
62617;BME280;62539;51.190;6.808;2023-02-19T00:41:00;101486.34;;;20.20;55.40
62617;BME280;62539;51.190;6.808;2023-02-19T00:43:26;101481.16;;;20.19;55.45
62617;BME280;62539;51.190;6.808;2023-02-19T00:45:51;101474.19;;;20.16;55.35
62617;BME280;62539;51.190;6.808;2023-02-19T00:48:17;101478.59;;;20.16;55.32
62617;BME280;62539;51.190;6.808;2023-02-19T00:50:42;101470.72;;;20.14;55.30
62617;BME280;62539;51.190;6.808;2023-02-19T00:53:08;101476.91;;;20.13;55.31
62617;BME280;62539;51.190;6.808;2023-02-19T00:55:33;101484.00;;;20.11;55.57
62617;BME280;62539;51.190;6.808;2023-02-19T00:57:59;101471.78;;;20.08;55.47
62617;BME280;62539;51.190;6.808;2023-02-19T01:00:24;101482.34;;;20.07;55.37
62617;BME280;62539;51.190;6.808;2023-02-19T01:02:49;101473.63;;;20.05;55.65
62617;BME280;62539;51.190;6.808;2023-02-19T01:05:15;101477.19;;;20.04;55.50
62617;BME280;62539;51.190;6.808;2023-02-19T01:07:40;101471.09;;;20.02;55.54
62617;BME280;62539;51.190;6.808;2023-02-19T01:10:06;101466.75;;;20.01;55.48
62617;BME280;62539;51.190;6.808;2023-02-19T01:12:31;101465.06;;;19.98;55.43
62617;BME280;62539;51.190;6.808;2023-02-19T01:14:57;101469.53;;;19.96;55.40
62617;BME280;62539;51.190;6.808;2023-02-19T01:17:23;101472.19;;;19.94;55.49
62617;BME280;62539;51.190;6.808;2023-02-19T01:19:49;101464.34;;;19.93;55.68
62617;BME280;62539;51.190;6.808;2023-02-19T01:22:14;101466.16;;;19.91;55.68
62617;BME280;62539;51.190;6.808;2023-02-19T01:24:40;101473.19;;;19.90;55.44
62617;BME280;62539;51.190;6.808;2023-02-19T01:27:05;101464.44;;;19.88;55.65
62617;BME280;62539;51.190;6.808;2023-02-19T01:29:30;101466.25;;;19.86;55.73
62617;BME280;62539;51.190;6.808;2023-02-19T01:31:56;101470.69;;;19.84;55.73
62617;BME280;62539;51.190;6.808;2023-02-19T01:34:21;101468.06;;;19.84;55.81
62617;BME280;62539;51.190;6.808;2023-02-19T01:36:47;101469.88;;;19.82;55.74
62617;BME280;62539;51.190;6.808;2023-02-19T01:39:12;101461.16;;;19.80;55.64
62617;BME280;62539;51.190;6.808;2023-02-19T01:41:40;101469.06;;;19.80;55.46
62617;BME280;62539;51.190;6.808;2023-02-19T01:46:42;101463.03;;;19.76;55.64
62617;BME280;62539;51.190;6.808;2023-02-19T01:49:12;101462.16;;;19.76;55.44
62617;BME280;62539;51.190;6.808;2023-02-19T01:51:49;101465.69;;;19.75;55.70
62617;BME280;62539;51.190;6.808;2023-02-19T01:54:20;101462.25;;;19.73;55.76
62617;BME280;62539;51.190;6.808;2023-02-19T01:56:48;101464.13;;;19.67;55.53
62617;BME280;62539;51.190;6.808;2023-02-19T01:59:15;101469.47;;;19.66;55.72
62617;BME280;62539;51.190;6.808;2023-02-19T02:01:42;101465.13;;;19.63;56.06
62617;BME280;62539;51.190;6.808;2023-02-19T02:04:08;101463.41;;;19.62;55.90
62617;BME280;62539;51.190;6.808;2023-02-19T02:06:51;101471.38;;;19.59;55.90
62617;BME280;62539;51.190;6.808;2023-02-19T02:09:21;101483.63;;;19.60;55.79
62617;BME280;62539;51.190;6.808;2023-02-19T02:12:07;101473.19;;;19.57;55.85
62617;BME280;62539;51.190;6.808;2023-02-19T02:14:35;101479.34;;;19.58;55.79
62617;BME280;62539;51.190;6.808;2023-02-19T02:17:24;101475.88;;;19.56;55.84
62617;BME280;62539;51.190;6.808;2023-02-19T02:28:51;101478.72;;;19.48;55.96
62617;BME280;62539;51.190;6.808;2023-02-19T02:32:02;101474.34;;;19.47;56.00
62617;BME280;62539;51.190;6.808;2023-02-19T02:34:46;101473.53;;;19.45;56.00
62617;BME280;62539;51.190;6.808;2023-02-19T02:37:17;101467.44;;;19.43;55.95
62617;BME280;62539;51.190;6.808;2023-02-19T02:39:44;101470.09;;;19.43;56.10
62617;BME280;62539;51.190;6.808;2023-02-19T02:42:11;101478.88;;;19.42;55.98
62617;BME280;62539;51.190;6.808;2023-02-19T02:44:52;101471.88;;;19.41;56.06
62617;BME280;62539;51.190;6.808;2023-02-19T02:47:49;101463.19;;;19.38;56.01
62617;BME280;62539;51.190;6.808;2023-02-19T02:50:30;101471.97;;;19.37;56.00
62617;BME280;62539;51.190;6.808;2023-02-19T02:53:11;101475.50;;;19.36;56.13
62617;BME280;62539;51.190;6.808;2023-02-19T02:56:01;101467.66;;;19.35;56.26
62617;BME280;62539;51.190;6.808;2023-02-19T02:58:28;101470.31;;;19.33;56.07
62617;BME280;62539;51.190;6.808;2023-02-19T03:01:04;101472.13;;;19.33;56.09
62617;BME280;62539;51.190;6.808;2023-02-19T03:04:06;101479.13;;;19.32;56.27
62617;BME280;62539;51.190;6.808;2023-02-19T03:06:37;101479.13;;;19.32;56.12
62617;BME280;62539;51.190;6.808;2023-02-19T03:09:15;101487.06;;;19.31;56.12
62617;BME280;62539;51.190;6.808;2023-02-19T03:11:48;101487.09;;;19.29;56.07
62617;BME280;62539;51.190;6.808;2023-02-19T03:14:42;101483.66;;;19.27;56.28
62617;BME280;62539;51.190;6.808;2023-02-19T03:18:13;101484.53;;;19.26;56.21
62617;BME280;62539;51.190;6.808;2023-02-19T03:20:54;101503.03;;;19.24;56.23
62617;BME280;62539;51.190;6.808;2023-02-19T03:23:22;101497.91;;;19.18;56.20
62617;BME280;62539;51.190;6.808;2023-02-19T03:26:15;101497.03;;;19.18;56.38
62617;BME280;62539;51.190;6.808;2023-02-19T03:28:44;101504.09;;;19.16;56.27
62617;BME280;62539;51.190;6.808;2023-02-19T03:31:34;101512.88;;;19.15;56.40
62617;BME280;62539;51.190;6.808;2023-02-19T03:34:08;101505.00;;;19.15;56.48
62617;BME280;62539;51.190;6.808;2023-02-19T03:36:43;101516.44;;;19.14;56.42
62617;BME280;62539;51.190;6.808;2023-02-19T03:39:19;101516.44;;;19.14;56.40
62617;BME280;62539;51.190;6.808;2023-02-19T03:41:59;101515.56;;;19.13;56.34
62617;BME280;62539;51.190;6.808;2023-02-19T03:44:41;101516.47;;;19.12;56.33
62617;BME280;62539;51.190;6.808;2023-02-19T03:47:16;101520.84;;;19.12;56.29
62617;BME280;62539;51.190;6.808;2023-02-19T03:52:57;101521.75;;;19.10;56.24
62617;BME280;62539;51.190;6.808;2023-02-19T03:55:31;101520.91;;;19.10;56.45
62617;BME280;62539;51.190;6.808;2023-02-19T03:58:15;101523.56;;;19.08;56.31
62617;BME280;62539;51.190;6.808;2023-02-19T04:01:07;101530.63;;;19.06;56.40
62617;BME280;62539;51.190;6.808;2023-02-19T04:03:52;101526.28;;;19.05;56.57
62617;BME280;62539;51.190;6.808;2023-02-19T04:06:26;101528.06;;;19.05;56.48
62617;BME280;62539;51.190;6.808;2023-02-19T04:08:57;101535.97;;;19.03;56.28
62617;BME280;62539;51.190;6.808;2023-02-19T04:11:26;101534.22;;;19.02;56.30
62617;BME280;62539;51.190;6.808;2023-02-19T04:14:02;101536.88;;;19.02;56.33
62617;BME280;62539;51.190;6.808;2023-02-19T04:16:33;101548.28;;;19.01;56.23
62617;BME280;62539;51.190;6.808;2023-02-19T04:19:09;101540.44;;;19.00;56.44
62617;BME280;62539;51.190;6.808;2023-02-19T04:21:38;101550.09;;;18.99;56.41
62617;BME280;62539;51.190;6.808;2023-02-19T04:24:10;101553.63;;;18.98;56.39
62617;BME280;62539;51.190;6.808;2023-02-19T04:26:40;101560.66;;;18.98;56.42
62617;BME280;62539;51.190;6.808;2023-02-19T04:29:06;101558.88;;;18.98;56.52
62617;BME280;62539;51.190;6.808;2023-02-19T04:31:33;101565.03;;;18.97;56.35
62617;BME280;62539;51.190;6.808;2023-02-19T04:34:00;101565.03;;;18.97;56.40
62617;BME280;62539;51.190;6.808;2023-02-19T04:36:27;101566.81;;;18.97;56.33
62617;BME280;62539;51.190;6.808;2023-02-19T04:38:53;101566.81;;;18.97;56.24
62617;BME280;62539;51.190;6.808;2023-02-19T04:41:18;101568.53;;;18.96;56.44
62617;BME280;62539;51.190;6.808;2023-02-19T04:43:44;101572.06;;;18.95;56.27
62617;BME280;62539;51.190;6.808;2023-02-19T04:46:09;101578.22;;;18.94;56.17
62617;BME280;62539;51.190;6.808;2023-02-19T04:48:35;101589.63;;;18.93;56.35
62617;BME280;62539;51.190;6.808;2023-02-19T04:51:04;101597.53;;;18.93;56.39
62617;BME280;62539;51.190;6.808;2023-02-19T04:53:30;101584.44;;;18.91;56.27
62617;BME280;62539;51.190;6.808;2023-02-19T04:55:56;101581.81;;;18.90;56.25
62617;BME280;62539;51.190;6.808;2023-02-19T04:58:21;101590.59;;;18.89;56.21
62617;BME280;62539;51.190;6.808;2023-02-19T05:00:50;101590.59;;;18.89;56.14
62617;BME280;62539;51.190;6.808;2023-02-19T05:03:16;101599.41;;;18.88;56.31
62617;BME280;62539;51.190;6.808;2023-02-19T05:05:42;101603.81;;;18.87;56.34
62617;BME280;62539;51.190;6.808;2023-02-19T05:08:07;101597.59;;;18.90;56.35
62617;BME280;62539;51.190;6.808;2023-02-19T05:10:33;101605.34;;;18.96;56.48
62617;BME280;62539;51.190;6.808;2023-02-19T05:12:58;101613.13;;;19.02;56.43
62617;BME280;62539;51.190;6.808;2023-02-19T05:15:24;101611.19;;;19.10;56.23
62617;BME280;62539;51.190;6.808;2023-02-19T05:17:49;101616.22;;;19.20;56.19
62617;BME280;62539;51.190;6.808;2023-02-19T05:20:15;101619.53;;;19.28;55.82
62617;BME280;62539;51.190;6.808;2023-02-19T05:22:40;101621.88;;;19.41;55.70
62617;BME280;62539;51.190;6.808;2023-02-19T05:25:06;101632.06;;;19.54;55.24
62617;BME280;62539;51.190;6.808;2023-02-19T05:27:31;101630.78;;;19.69;55.09
62617;BME280;62539;51.190;6.808;2023-02-19T05:29:56;101634.84;;;19.83;54.79
62617;BME280;62539;51.190;6.808;2023-02-19T05:32:22;101646.88;;;19.95;54.26
62617;BME280;62539;51.190;6.808;2023-02-19T05:34:47;101647.47;;;20.05;54.07
62617;BME280;62539;51.190;6.808;2023-02-19T05:37:14;101647.31;;;20.11;53.80
62617;BME280;62539;51.190;6.808;2023-02-19T05:39:40;101644.56;;;20.16;53.71
62617;BME280;62539;51.190;6.808;2023-02-19T05:42:05;101648.88;;;20.18;53.48
62617;BME280;62539;51.190;6.808;2023-02-19T05:44:31;101649.69;;;20.20;53.24
62617;BME280;62539;51.190;6.808;2023-02-19T05:46:56;101647.94;;;20.21;53.24
62617;BME280;62539;51.190;6.808;2023-02-19T05:49:21;101663.75;;;20.21;53.20
62617;BME280;62539;51.190;6.808;2023-02-19T05:51:49;101662.00;;;20.20;53.08
62617;BME280;62539;51.190;6.808;2023-02-19T05:54:15;101662.94;;;20.17;53.32
62617;BME280;62539;51.190;6.808;2023-02-19T05:56:41;101676.19;;;20.16;53.36
62617;BME280;62539;51.190;6.808;2023-02-19T05:59:14;101667.38;;;20.15;53.36
62617;BME280;62539;51.190;6.808;2023-02-19T06:01:42;101669.09;;;20.18;53.32
62617;BME280;62539;51.190;6.808;2023-02-19T06:04:12;101668.94;;;20.22;53.15
62617;BME280;62539;51.190;6.808;2023-02-19T06:06:39;101667.97;;;20.26;53.30
62617;BME280;62539;51.190;6.808;2023-02-19T06:09:06;101673.16;;;20.30;53.20
62617;BME280;62539;51.190;6.808;2023-02-19T06:11:33;101679.25;;;20.32;53.10
62617;BME280;62539;51.190;6.808;2023-02-19T06:13:58;101678.34;;;20.33;53.00
62617;BME280;62539;51.190;6.808;2023-02-19T06:16:24;101686.25;;;20.33;52.84
62617;BME280;62539;51.190;6.808;2023-02-19T06:18:50;101685.41;;;20.31;53.02
62617;BME280;62539;51.190;6.808;2023-02-19T06:21:17;101678.34;;;20.33;52.80
62617;BME280;62539;51.190;6.808;2023-02-19T06:23:44;101686.25;;;20.33;52.67
62617;BME280;62539;51.190;6.808;2023-02-19T06:26:15;101684.47;;;20.33;52.98
62617;BME280;62539;51.190;6.808;2023-02-19T06:28:43;101690.66;;;20.32;52.80
62617;BME280;62539;51.190;6.808;2023-02-19T06:31:10;101685.41;;;20.31;52.71
62617;BME280;62539;51.190;6.808;2023-02-19T06:33:37;101693.38;;;20.29;52.74
62617;BME280;62539;51.190;6.808;2023-02-19T06:36:10;101696.03;;;20.27;53.10
62617;BME280;62539;51.190;6.808;2023-02-19T06:38:37;101701.38;;;20.26;53.07
62617;BME280;62539;51.190;6.808;2023-02-19T06:41:04;101714.47;;;20.27;53.64
62617;BME280;62539;51.190;6.808;2023-02-19T06:43:32;101716.13;;;20.32;53.44
62617;BME280;62539;51.190;6.808;2023-02-19T06:45:58;101710.75;;;20.36;53.34
62617;BME280;62539;51.190;6.808;2023-02-19T06:48:28;101713.25;;;20.41;53.08
62617;BME280;62539;51.190;6.808;2023-02-19T06:50:55;101720.06;;;20.48;53.06
62617;BME280;62539;51.190;6.808;2023-02-19T06:53:21;101716.38;;;20.55;52.90
62617;BME280;62539;51.190;6.808;2023-02-19T06:58:49;101724.56;;;20.76;52.54
62617;BME280;62539;51.190;6.808;2023-02-19T07:01:15;101726.16;;;20.83;52.55
62617;BME280;62539;51.190;6.808;2023-02-19T07:03:40;101747.00;;;20.93;52.29
62617;BME280;62539;51.190;6.808;2023-02-19T07:06:06;101745.09;;;20.98;52.29
62617;BME280;62539;51.190;6.808;2023-02-19T07:08:32;101752.06;;;21.00;51.96
62617;BME280;62539;51.190;6.808;2023-02-19T07:10:57;101755.53;;;21.01;52.04
62617;BME280;62539;51.190;6.808;2023-02-19T07:13:24;101762.59;;;21.00;51.86
62617;BME280;62539;51.190;6.808;2023-02-19T07:16:02;101762.63;;;20.99;51.91
62617;BME280;62539;51.190;6.808;2023-02-19T07:18:30;101760.06;;;20.97;51.81
62617;BME280;62539;51.190;6.808;2023-02-19T07:21:04;101761.00;;;20.95;52.01
62617;BME280;62539;51.190;6.808;2023-02-19T07:23:31;101768.16;;;20.91;51.87
62617;BME280;62539;51.190;6.808;2023-02-19T07:25:57;101777.88;;;20.89;51.99
62617;BME280;62539;51.190;6.808;2023-02-19T07:28:23;101784.09;;;20.87;51.97
62617;BME280;62539;51.190;6.808;2023-02-19T07:30:48;101784.09;;;20.87;52.22
62617;BME280;62539;51.190;6.808;2023-02-19T07:33:14;101792.78;;;20.90;52.49
62617;BME280;62539;51.190;6.808;2023-02-19T07:35:46;101793.53;;;20.95;52.47
62617;BME280;62539;51.190;6.808;2023-02-19T07:38:18;101805.63;;;21.03;52.75
62617;BME280;62539;51.190;6.808;2023-02-19T07:40:54;101806.31;;;21.09;52.34
62617;BME280;62539;51.190;6.808;2023-02-19T07:43:23;101816.59;;;21.19;52.33
62617;BME280;62539;51.190;6.808;2023-02-19T07:45:49;101804.03;;;21.27;51.93
62617;BME280;62539;51.190;6.808;2023-02-19T07:48:15;101817.91;;;21.34;51.57
62617;BME280;62539;51.190;6.808;2023-02-19T07:50:41;101816.97;;;21.36;51.53
62617;BME280;62539;51.190;6.808;2023-02-19T07:53:07;101829.19;;;21.39;51.54
62617;BME280;62539;51.190;6.808;2023-02-19T07:55:33;101828.34;;;21.38;51.37
62617;BME280;62539;51.190;6.808;2023-02-19T07:57:59;101836.25;;;21.38;51.56
62617;BME280;62539;51.190;6.808;2023-02-19T08:00:26;101833.63;;;21.38;51.48
62617;BME280;62539;51.190;6.808;2023-02-19T08:02:52;101841.56;;;21.37;51.36
62617;BME280;62539;51.190;6.808;2023-02-19T08:05:24;101847.00;;;21.32;51.44
62617;BME280;62539;51.190;6.808;2023-02-19T08:07:55;101840.91;;;21.30;51.33
62617;BME280;62539;51.190;6.808;2023-02-19T08:10:21;101848.00;;;21.28;51.50
62617;BME280;62539;51.190;6.808;2023-02-19T08:13:05;101849.91;;;21.23;51.81
62617;BME280;62539;51.190;6.808;2023-02-19T08:18:29;101859.72;;;21.18;51.63
62617;BME280;62539;51.190;6.808;2023-02-19T08:20:57;101856.31;;;21.14;52.02
62617;BME280;62539;51.190;6.808;2023-02-19T08:23:24;101863.41;;;21.12;51.95
62617;BME280;62539;51.190;6.808;2023-02-19T08:25:51;101865.16;;;21.13;51.82
62617;BME280;62539;51.190;6.808;2023-02-19T08:28:18;101875.56;;;21.18;51.96
62617;BME280;62539;51.190;6.808;2023-02-19T08:30:45;101869.28;;;21.22;52.11
62617;BME280;62539;51.190;6.808;2023-02-19T08:33:13;101881.41;;;21.29;51.83
62617;BME280;62539;51.190;6.808;2023-02-19T08:35:41;101880.50;;;21.28;51.82
62617;BME280;62539;51.190;6.808;2023-02-19T08:38:08;101888.50;;;21.27;51.94
62617;BME280;62539;51.190;6.808;2023-02-19T08:40:36;101881.47;;;21.26;51.65
62617;BME280;62539;51.190;6.808;2023-02-19T08:43:14;101878.84;;;21.26;51.78
62617;BME280;62539;51.190;6.808;2023-02-19T08:45:43;101882.31;;;21.28;51.88
62617;BME280;62539;51.190;6.808;2023-02-19T08:48:10;101879.56;;;21.31;51.82
62617;BME280;62539;51.190;6.808;2023-02-19T08:50:37;101883.03;;;21.33;51.49
62617;BME280;62539;51.190;6.808;2023-02-19T08:53:03;101885.59;;;21.36;51.37
62617;BME280;62539;51.190;6.808;2023-02-19T08:55:31;101891.59;;;21.41;51.16
62617;BME280;62539;51.190;6.808;2023-02-19T08:57:56;101885.34;;;21.44;51.48
62617;BME280;62539;51.190;6.808;2023-02-19T09:00:22;101893.25;;;21.46;51.41
62617;BME280;62539;51.190;6.808;2023-02-19T09:02:48;101892.25;;;21.50;51.46
62617;BME280;62539;51.190;6.808;2023-02-19T09:05:14;101896.56;;;21.52;51.26
62617;BME280;62539;51.190;6.808;2023-02-19T09:07:40;101891.16;;;21.57;50.95
62617;BME280;62539;51.190;6.808;2023-02-19T09:10:07;101883.97;;;21.62;50.84
62617;BME280;62539;51.190;6.808;2023-02-19T09:12:34;101894.31;;;21.70;50.62
62617;BME280;62539;51.190;6.808;2023-02-19T09:14:59;101908.22;;;21.77;50.60
62617;BME280;62539;51.190;6.808;2023-02-19T09:17:25;101905.38;;;21.83;50.25
62617;BME280;62539;51.190;6.808;2023-02-19T09:19:51;101904.41;;;21.85;50.15
62617;BME280;62539;51.190;6.808;2023-02-19T09:22:17;101907.84;;;21.89;49.91
62617;BME280;62539;51.190;6.808;2023-02-19T09:24:43;101906.00;;;21.91;49.82
62617;BME280;62539;51.190;6.808;2023-02-19T09:27:14;101917.50;;;21.90;50.06
62617;BME280;62539;51.190;6.808;2023-02-19T09:29:40;101928.97;;;21.89;49.84
62617;BME280;62539;51.190;6.808;2023-02-19T09:32:06;101929.06;;;21.86;49.93
62617;BME280;62539;51.190;6.808;2023-02-19T09:34:31;101933.56;;;21.82;49.72
62617;BME280;62539;51.190;6.808;2023-02-19T09:36:57;101930.16;;;21.79;49.75
62617;BME280;62539;51.190;6.808;2023-02-19T09:39:22;101934.72;;;21.73;49.75
62617;BME280;62539;51.190;6.808;2023-02-19T09:41:51;101937.44;;;21.70;49.69
62617;BME280;62539;51.190;6.808;2023-02-19T09:44:31;101941.94;;;21.67;50.10
62617;BME280;62539;51.190;6.808;2023-02-19T09:47:01;101942.81;;;21.67;50.27
62617;BME280;62539;51.190;6.808;2023-02-19T09:49:33;101931.25;;;21.71;49.98
62617;BME280;62539;51.190;6.808;2023-02-19T09:52:16;101934.72;;;21.73;49.85
62617;BME280;62539;51.190;6.808;2023-02-19T09:54:48;101944.22;;;21.79;50.00
62617;BME280;62539;51.190;6.808;2023-02-19T09:57:16;101939.72;;;21.83;49.60
62617;BME280;62539;51.190;6.808;2023-02-19T09:59:48;101947.47;;;21.89;49.91
62617;BME280;62539;51.190;6.808;2023-02-19T10:02:19;101953.56;;;21.91;49.61
62617;BME280;62539;51.190;6.808;2023-02-19T10:04:47;101961.53;;;21.90;49.53
62617;BME280;62539;51.190;6.808;2023-02-19T10:07:18;101971.25;;;21.89;49.59
62617;BME280;62539;51.190;6.808;2023-02-19T10:09:56;101974.88;;;21.85;49.41
62617;BME280;62539;51.190;6.808;2023-02-19T10:12:30;101986.38;;;21.82;49.68
62617;BME280;62539;51.190;6.808;2023-02-19T10:15:14;101998.00;;;21.77;49.54
62617;BME280;62539;51.190;6.808;2023-02-19T10:17:43;102002.47;;;21.75;49.83
62617;BME280;62539;51.190;6.808;2023-02-19T10:20:17;102016.69;;;21.70;49.53
62617;BME280;62539;51.190;6.808;2023-02-19T10:22:56;102029.97;;;21.67;49.80
62617;BME280;62539;51.190;6.808;2023-02-19T10:25:26;102020.31;;;21.66;50.09
62617;BME280;62539;51.190;6.808;2023-02-19T10:27:51;102015.78;;;21.70;49.95
62617;BME280;62539;51.190;6.808;2023-02-19T10:30:23;102011.16;;;21.78;50.09
62617;BME280;62539;51.190;6.808;2023-02-19T10:33:01;102022.34;;;21.88;49.64
62617;BME280;62539;51.190;6.808;2023-02-19T10:35:34;102026.38;;;22.00;49.34
62617;BME280;62539;51.190;6.808;2023-02-19T10:38:03;102035.94;;;22.06;49.14
62617;BME280;62539;51.190;6.808;2023-02-19T10:40:32;102034.09;;;22.08;48.98
62617;BME280;62539;51.190;6.808;2023-02-19T10:43:03;102045.41;;;22.13;49.08
62617;BME280;62539;51.190;6.808;2023-02-19T10:45:37;102040.13;;;22.13;48.99
62617;BME280;62539;51.190;6.808;2023-02-19T10:48:06;102049.81;;;22.12;49.03
62617;BME280;62539;51.190;6.808;2023-02-19T10:50:50;102045.44;;;22.11;48.92
62617;BME280;62539;51.190;6.808;2023-02-19T10:53:45;102044.59;;;22.11;48.90
62617;BME280;62539;51.190;6.808;2023-02-19T10:56:21;102042.03;;;22.08;49.05
62617;BME280;62539;51.190;6.808;2023-02-19T10:58:51;102054.44;;;22.06;48.83
62617;BME280;62539;51.190;6.808;2023-02-19T11:01:19;102049.22;;;22.02;48.78
62617;BME280;62539;51.190;6.808;2023-02-19T11:03:51;102048.31;;;22.03;48.91
62617;BME280;62539;51.190;6.808;2023-02-19T11:06:37;102058.97;;;22.00;49.18
62617;BME280;62539;51.190;6.808;2023-02-19T11:09:03;102057.06;;;22.06;49.20
62617;BME280;62539;51.190;6.808;2023-02-19T11:11:36;102065.81;;;22.08;48.98
62617;BME280;62539;51.190;6.808;2023-02-19T11:14:18;102075.38;;;22.12;48.80
62617;BME280;62539;51.190;6.808;2023-02-19T11:16:49;102073.47;;;22.17;49.03
62617;BME280;62539;51.190;6.808;2023-02-19T11:21:46;102071.59;;;22.21;48.30
62617;BME280;62539;51.190;6.808;2023-02-19T11:24:22;102076.88;;;22.21;48.65
62617;BME280;62539;51.190;6.808;2023-02-19T11:26:53;102074.28;;;22.19;48.81
62617;BME280;62539;51.190;6.808;2023-02-19T11:29:22;102070.84;;;22.17;48.37
62617;BME280;62539;51.190;6.808;2023-02-19T11:31:50;102063.91;;;22.13;48.67
62617;BME280;62539;51.190;6.808;2023-02-19T11:37:15;102064.19;;;22.03;48.88
62617;BME280;62539;51.190;6.808;2023-02-19T11:39:43;102064.25;;;22.00;48.88
62617;BME280;62539;51.190;6.808;2023-02-19T11:42:39;102050.41;;;21.92;48.92
62617;BME280;62539;51.190;6.808;2023-02-19T11:45:28;102054.03;;;21.88;49.21
62617;BME280;62539;51.190;6.808;2023-02-19T11:51:49;102060.19;;;21.88;49.11
62617;BME280;62539;51.190;6.808;2023-02-19T11:57:08;102052.13;;;21.93;49.17
62617;BME280;62539;51.190;6.808;2023-02-19T12:00:11;102052.91;;;21.97;49.21
62617;BME280;62539;51.190;6.808;2023-02-19T12:03:58;102042.34;;;21.97;49.05
62617;BME280;62539;51.190;6.808;2023-02-19T12:09:13;102049.41;;;21.96;48.71
62617;BME280;62539;51.190;6.808;2023-02-19T12:15:02;102041.59;;;21.92;48.91
62617;BME280;62539;51.190;6.808;2023-02-19T12:17:45;102045.22;;;21.89;49.13
62617;BME280;62539;51.190;6.808;2023-02-19T12:26:15;102064.94;;;21.76;49.29
62617;BME280;62539;51.190;6.808;2023-02-19T12:29:04;102072.06;;;21.73;49.34
62617;BME280;62539;51.190;6.808;2023-02-19T12:35:08;102072.81;;;21.77;49.63
62617;BME280;62539;51.190;6.808;2023-02-19T12:41:06;102071.66;;;21.87;49.35
62617;BME280;62539;51.190;6.808;2023-02-19T12:43:50;102071.44;;;21.95;48.94
62617;BME280;62539;51.190;6.808;2023-02-19T12:46:24;102072.19;;;22.00;48.76
62617;BME280;62539;51.190;6.808;2023-02-19T12:49:06;102073.88;;;22.03;48.94
62617;BME280;62539;51.190;6.808;2023-02-19T12:51:59;102070.28;;;22.06;48.87
62617;BME280;62539;51.190;6.808;2023-02-19T12:54:40;102077.22;;;22.10;48.54
62617;BME280;62539;51.190;6.808;2023-02-19T12:57:12;102070.91;;;22.14;48.47
62617;BME280;62539;51.190;6.808;2023-02-19T12:59:52;102069.03;;;22.17;48.40
62617;BME280;62539;51.190;6.808;2023-02-19T13:08:31;102075.41;;;22.10;48.60
62617;BME280;62539;51.190;6.808;2023-02-19T13:11:05;102061.34;;;22.10;48.76
62617;BME280;62539;51.190;6.808;2023-02-19T13:13:45;102076.31;;;22.09;48.52
62617;BME280;62539;51.190;6.808;2023-02-19T13:16:18;102070.09;;;22.12;48.86
62617;BME280;62539;51.190;6.808;2023-02-19T13:18:55;102063.84;;;22.14;48.37
62617;BME280;62539;51.190;6.808;2023-02-19T13:21:27;102075.16;;;22.20;48.32
62617;BME280;62539;51.190;6.808;2023-02-19T13:24:26;102075.94;;;22.23;48.46
62617;BME280;62539;51.190;6.808;2023-02-19T13:32:53;102075.94;;;22.23;48.23
62617;BME280;62539;51.190;6.808;2023-02-19T13:36:00;102078.69;;;22.20;48.25
62617;BME280;62539;51.190;6.808;2023-02-19T13:38:46;102084.97;;;22.16;48.38
62617;BME280;62539;51.190;6.808;2023-02-19T13:44:02;102093.09;;;22.08;48.40
62617;BME280;62539;51.190;6.808;2023-02-19T13:46:36;102100.28;;;22.03;48.49
62617;BME280;62539;51.190;6.808;2023-02-19T13:51:59;102094.44;;;21.92;48.63
62617;BME280;62539;51.190;6.808;2023-02-19T13:54:34;102097.22;;;21.87;48.55
62617;BME280;62539;51.190;6.808;2023-02-19T13:57:39;102104.44;;;21.80;48.89
62617;BME280;62539;51.190;6.808;2023-02-19T14:03:44;102110.53;;;21.82;49.06
62617;BME280;62539;51.190;6.808;2023-02-19T14:06:12;102112.16;;;21.88;49.17
62617;BME280;62539;51.190;6.808;2023-02-19T14:08:46;102115.53;;;21.93;49.01
62617;BME280;62539;51.190;6.808;2023-02-19T14:14:27;102132.81;;;22.05;48.75
62617;BME280;62539;51.190;6.808;2023-02-19T14:16:58;102133.56;;;22.10;48.44
62617;BME280;62539;51.190;6.808;2023-02-19T14:33:22;102146.75;;;22.12;48.42
62617;BME280;62539;51.190;6.808;2023-02-19T14:36:04;102145.94;;;22.08;48.30
62617;BME280;62539;51.190;6.808;2023-02-19T14:38:53;102147.00;;;22.02;48.50
62617;BME280;62539;51.190;6.808;2023-02-19T14:41:24;102151.53;;;21.97;48.16
62617;BME280;62539;51.190;6.808;2023-02-19T14:43:55;102153.34;;;21.95;48.70